createdAt,value
2022-08-20T08:12:29.144Z,8.40
2022-08-20T08:17:32.741Z,9.20
2022-08-20T08:22:35.782Z,8.90
2022-08-20T08:27:39.111Z,8.83
2022-08-20T08:33:02.499Z,8.37
2022-08-20T08:38:05.378Z,8.73
2022-08-20T08:43:11.516Z,9.77
2022-08-20T08:48:19.496Z,8.63
2022-08-20T08:53:46.476Z,8.90
2022-08-20T08:58:49.932Z,9.93
2022-08-20T09:03:53.140Z,9.17
2022-08-20T09:09:01.196Z,9.07
2022-08-20T09:14:04.029Z,10.23
2022-08-20T09:19:06.817Z,10.00
2022-08-20T09:24:09.970Z,9.77
2022-08-20T09:29:12.980Z,8.73
2022-08-20T09:34:15.886Z,10.10
2022-08-20T09:39:18.676Z,8.50
2022-08-20T09:44:21.549Z,8.50
2022-08-20T09:49:24.351Z,8.50
2022-08-20T09:54:30.293Z,9.00
2022-08-20T09:59:35.954Z,8.90
2022-08-20T10:04:38.717Z,9.17
2022-08-20T10:09:41.537Z,7.77
2022-08-20T10:14:44.325Z,7.70
2022-08-20T10:19:47.196Z,7.40
2022-08-20T10:24:50.399Z,7.93
2022-08-20T10:29:53.184Z,7.90
2022-08-20T10:34:56.040Z,6.97
2022-08-20T10:39:58.918Z,7.37
2022-08-20T10:45:01.765Z,7.07
2022-08-20T10:50:08.775Z,8.13
2022-08-20T10:55:12.469Z,7.33
2022-08-20T11:00:18.010Z,7.00
2022-08-20T11:05:20.885Z,6.40
2022-08-20T11:10:29.139Z,6.27
2022-08-20T11:15:39.525Z,6.40
2022-08-20T11:20:44.784Z,6.70
2022-08-20T11:25:47.779Z,6.23
2022-08-20T11:30:50.655Z,5.60
2022-08-20T11:35:53.470Z,5.80
2022-08-20T11:40:56.284Z,5.40
2022-08-20T11:45:59.117Z,6.13
2022-08-20T11:51:01.951Z,6.73
2022-08-20T11:56:04.855Z,5.83
2022-08-20T12:01:07.705Z,5.50
2022-08-20T12:06:10.487Z,5.87
2022-08-20T12:11:13.305Z,5.53
2022-08-20T12:16:17.559Z,5.87
2022-08-20T12:21:20.717Z,5.73
2022-08-20T12:26:23.538Z,6.17
2022-08-20T12:31:26.389Z,6.27
2022-08-20T12:36:29.178Z,6.73
2022-08-20T12:41:31.937Z,6.90
2022-08-20T12:46:34.806Z,6.23
2022-08-20T12:51:37.636Z,6.77
2022-08-20T12:56:41.625Z,6.83
2022-08-20T13:01:44.646Z,7.00
2022-08-20T13:06:47.790Z,6.70
2022-08-20T13:11:50.989Z,6.57
2022-08-20T13:16:57.149Z,6.93
2022-08-20T13:22:04.217Z,7.37
2022-08-20T13:27:12.359Z,7.20
2022-08-20T13:32:15.310Z,6.77
2022-08-20T13:37:25.815Z,6.00
2022-08-20T13:42:29.102Z,6.23
2022-08-20T13:47:34.915Z,7.30
2022-08-20T13:52:38.920Z,6.30
2022-08-20T13:57:42.648Z,7.00
2022-08-20T14:02:45.526Z,6.00
2022-08-20T14:07:49.933Z,5.90
2022-08-20T14:12:52.784Z,5.93
2022-08-20T14:17:57.246Z,6.03
2022-08-20T14:23:01.450Z,6.43
2022-08-20T14:28:19.216Z,6.17
2022-08-20T14:33:23.892Z,5.17
2022-08-20T14:38:26.637Z,5.57
2022-08-20T14:43:29.438Z,5.53
2022-08-20T14:48:32.209Z,6.07
2022-08-20T14:53:39.811Z,5.13
2022-08-20T14:58:43.222Z,6.27
2022-08-20T15:03:45.983Z,8.00
2022-08-20T15:08:52.537Z,5.90
2022-08-20T15:13:55.418Z,6.60
2022-08-20T15:18:59.819Z,7.57
2022-08-20T15:24:03.481Z,8.53
2022-08-20T15:29:23.365Z,8.17
2022-08-20T15:34:26.410Z,7.97
2022-08-20T15:39:29.216Z,8.53
2022-08-20T15:44:32.317Z,8.00
2022-08-20T15:49:37.025Z,7.40
2022-08-20T15:54:40.531Z,8.87
2022-08-20T16:00:12.554Z,8.23
2022-08-20T16:05:28.199Z,8.23
2022-08-20T16:10:37.567Z,7.83
2022-08-20T16:15:48.861Z,8.27
2022-08-20T16:20:55.084Z,8.80
2022-08-20T16:26:26.711Z,8.30
2022-08-20T16:31:40.914Z,8.90
2022-08-20T16:37:23.471Z,8.53
2022-08-20T16:42:33.806Z,10.17
2022-08-20T16:47:38.249Z,9.23
